createdAt,value
2018-07-03T00:02:06.056Z,23.43
2018-07-03T00:04:35.204Z,23.41
2018-07-03T00:07:04.448Z,23.42
2018-07-03T00:09:33.699Z,23.38
2018-07-03T00:12:02.914Z,23.37
2018-07-03T00:14:32.095Z,23.23
2018-07-03T00:17:06.223Z,23.16
2018-07-03T00:19:35.410Z,23.18
2018-07-03T00:22:04.559Z,23.20
2018-07-03T00:24:33.795Z,23.19
2018-07-03T00:27:03.042Z,23.12
2018-07-03T00:29:32.265Z,23.15
2018-07-03T00:32:01.527Z,23.14
2018-07-03T00:34:31.142Z,23.10
2018-07-03T00:37:00.742Z,23.07
2018-07-03T00:39:30.010Z,23.04
2018-07-03T00:41:59.797Z,23.02
2018-07-03T00:44:29.103Z,22.89
2018-07-03T00:46:58.462Z,22.84
2018-07-03T00:49:27.730Z,22.80
2018-07-03T00:51:57.023Z,22.73
2018-07-03T00:54:26.342Z,22.75
2018-07-03T00:56:55.606Z,22.74
2018-07-03T00:59:24.878Z,22.66
2018-07-03T01:01:54.199Z,22.64
2018-07-03T01:04:23.469Z,22.59
2018-07-03T01:06:52.723Z,22.58
2018-07-03T01:09:21.974Z,22.58
2018-07-03T01:11:51.323Z,22.53
2018-07-03T01:14:20.666Z,22.48
2018-07-03T01:16:49.903Z,22.46
2018-07-03T01:19:19.343Z,22.40
2018-07-03T01:21:48.542Z,21.80
2018-07-03T01:24:18.163Z,20.95
2018-07-03T01:26:47.453Z,21.26
2018-07-03T01:29:16.895Z,21.48
2018-07-03T01:31:46.962Z,21.67
2018-07-03T01:34:16.190Z,21.42
2018-07-03T01:36:45.483Z,21.20
2018-07-03T01:39:14.803Z,21.53
2018-07-03T01:41:44.065Z,21.28
2018-07-03T01:44:13.275Z,21.20
2018-07-03T01:46:42.446Z,21.45
2018-07-03T01:49:11.686Z,21.54
2018-07-03T01:51:41.083Z,21.26
2018-07-03T01:54:10.418Z,21.35
2018-07-03T01:56:39.746Z,21.47
2018-07-03T01:59:08.838Z,21.54
2018-07-03T02:01:38.089Z,21.52
2018-07-03T02:04:07.442Z,21.47
2018-07-03T02:06:36.688Z,21.06
2018-07-03T02:09:09.989Z,21.29
2018-07-03T02:11:39.562Z,21.32
2018-07-03T02:14:08.832Z,21.37
2018-07-03T02:16:38.106Z,21.38
2018-07-03T02:19:07.498Z,21.38
2018-07-03T02:21:36.893Z,21.12
2018-07-03T02:24:06.373Z,21.23
2018-07-03T02:26:35.716Z,21.27
2018-07-03T02:29:04.982Z,21.28
2018-07-03T02:31:34.223Z,21.26
2018-07-03T02:34:03.454Z,21.22
2018-07-03T02:36:32.818Z,21.09
2018-07-03T02:39:02.080Z,21.13
2018-07-03T02:41:31.405Z,21.07
2018-07-03T02:44:00.771Z,20.05
2018-07-03T02:46:29.995Z,20.42
2018-07-03T02:48:59.342Z,20.19
2018-07-03T02:51:28.620Z,19.82
2018-07-03T02:53:58.075Z,20.22
2018-07-03T02:56:27.308Z,20.22
2018-07-03T02:58:56.975Z,20.34
2018-07-03T03:01:26.303Z,19.53
2018-07-03T03:03:55.675Z,19.27
2018-07-03T03:06:24.927Z,19.94
2018-07-03T03:08:54.291Z,20.15
2018-07-03T03:11:24.419Z,19.98
2018-07-03T03:13:56.198Z,20.17
2018-07-03T03:16:25.623Z,20.28
2018-07-03T03:18:54.959Z,19.93
2018-07-03T03:21:24.304Z,19.86
2018-07-03T03:23:53.664Z,20.15
2018-07-03T03:26:22.989Z,20.21
2018-07-03T03:28:52.269Z,19.80
2018-07-03T03:31:21.347Z,20.09
2018-07-03T03:33:50.598Z,20.00
2018-07-03T03:36:19.861Z,20.15
2018-07-03T03:38:49.210Z,20.21
2018-07-03T03:41:18.494Z,20.21
2018-07-03T03:43:47.914Z,20.29
2018-07-03T03:46:17.173Z,20.15
2018-07-03T03:48:46.522Z,20.01
2018-07-03T03:51:15.859Z,20.06
2018-07-03T03:53:45.271Z,19.58
2018-07-03T03:56:14.575Z,19.91
2018-07-03T03:58:43.922Z,19.75
2018-07-03T04:01:13.215Z,19.77
2018-07-03T04:03:42.544Z,20.08
2018-07-03T04:06:11.763Z,20.29
2018-07-03T04:08:41.438Z,20.45
2018-07-03T04:11:11.002Z,20.36
2018-07-03T04:13:40.459Z,20.01
2018-07-03T04:16:09.691Z,20.35
2018-07-03T04:18:38.931Z,20.30
2018-07-03T04:21:08.861Z,20.45
2018-07-03T04:23:38.734Z,20.71
2018-07-03T04:26:07.922Z,20.99
2018-07-03T04:28:37.164Z,21.69
2018-07-03T04:31:06.426Z,22.54
2018-07-03T04:33:35.759Z,23.87
2018-07-03T04:36:04.907Z,24.83
2018-07-03T04:38:34.141Z,25.15
2018-07-03T04:41:03.504Z,24.38
2018-07-03T04:43:32.863Z,24.49
2018-07-03T04:46:02.138Z,24.68
2018-07-03T04:48:31.397Z,24.68
2018-07-03T04:51:00.641Z,24.19
2018-07-03T04:53:29.876Z,23.70
2018-07-03T04:55:59.246Z,23.36
2018-07-03T04:58:28.747Z,22.66
2018-07-03T05:00:58.064Z,22.74
2018-07-03T05:03:27.263Z,23.79
2018-07-03T05:05:56.573Z,23.60
2018-07-03T05:08:25.943Z,23.33
2018-07-03T05:10:55.286Z,22.27
2018-07-03T05:13:24.544Z,23.59
2018-07-03T05:15:53.904Z,23.67
2018-07-03T05:18:23.170Z,25.23
2018-07-03T05:20:52.482Z,24.22
2018-07-03T05:23:21.722Z,26.12
2018-07-03T05:25:51.081Z,26.74
2018-07-03T05:28:20.354Z,28.21
2018-07-03T05:30:49.793Z,27.65
2018-07-03T05:33:19.144Z,29.55
2018-07-03T05:35:48.488Z,29.69
2018-07-03T05:38:17.769Z,30.12
2018-07-03T05:40:47.105Z,30.72
2018-07-03T05:43:16.612Z,30.26
2018-07-03T05:45:45.674Z,29.22
2018-07-03T05:48:14.986Z,28.59
2018-07-03T05:50:44.294Z,27.61
2018-07-03T05:53:13.555Z,28.36
2018-07-03T05:55:42.895Z,28.82
2018-07-03T05:58:12.260Z,28.58
2018-07-03T06:00:41.588Z,30.98
2018-07-03T06:03:10.907Z,31.44
2018-07-03T06:05:40.167Z,31.21
2018-07-03T06:08:09.502Z,30.35
2018-07-03T06:10:38.771Z,29.77
2018-07-03T06:13:08.107Z,30.35
2018-07-03T06:15:37.359Z,30.50
2018-07-03T06:18:06.724Z,30.60
2018-07-03T06:20:36.095Z,30.49
2018-07-03T06:23:05.390Z,31.19
2018-07-03T06:25:34.664Z,30.46
2018-07-03T06:28:03.987Z,32.14
2018-07-03T06:30:33.255Z,32.00
2018-07-03T06:33:02.488Z,32.34
2018-07-03T06:35:31.747Z,31.15
2018-07-03T06:38:01.108Z,33.68
2018-07-03T06:40:30.446Z,35.70
2018-07-03T06:42:59.707Z,35.66
2018-07-03T06:45:28.999Z,31.24
2018-07-03T06:47:58.586Z,29.84
2018-07-03T06:50:27.876Z,30.46
2018-07-03T06:52:57.265Z,33.75
2018-07-03T06:55:26.596Z,32.66
2018-07-03T06:57:56.021Z,32.12
2018-07-03T07:00:25.366Z,31.66
2018-07-03T07:02:54.583Z,33.69
2018-07-03T07:05:24.021Z,33.06
2018-07-03T07:07:53.271Z,33.34
2018-07-03T07:10:22.525Z,32.29
2018-07-03T07:12:51.799Z,32.89
2018-07-03T07:15:21.358Z,31.71
2018-07-03T07:17:50.587Z,30.32
2018-07-03T07:20:19.927Z,29.45
2018-07-03T07:22:49.174Z,30.17
2018-07-03T07:25:18.526Z,30.41
2018-07-03T07:27:47.787Z,29.37
2018-07-03T07:30:17.127Z,29.31
2018-07-03T07:32:46.477Z,30.11
2018-07-03T07:35:15.822Z,30.66
2018-07-03T07:37:45.133Z,30.53
2018-07-03T07:40:14.566Z,31.76
2018-07-03T07:42:44.312Z,31.82
2018-07-03T07:45:13.753Z,30.99
2018-07-03T07:47:43.586Z,30.60
2018-07-03T07:50:12.961Z,29.85
2018-07-03T07:52:42.121Z,30.02
2018-07-03T07:55:11.387Z,30.34
2018-07-03T07:57:40.648Z,30.20
2018-07-03T08:00:09.990Z,30.87
2018-07-03T08:02:39.661Z,30.58
2018-07-03T08:05:09.099Z,30.90
2018-07-03T08:07:38.495Z,29.62
2018-07-03T08:10:07.807Z,29.76
2018-07-03T08:12:37.069Z,28.97
2018-07-03T08:15:06.388Z,28.90
2018-07-03T08:17:35.889Z,29.30
2018-07-03T08:20:05.562Z,29.70
2018-07-03T08:22:34.782Z,29.80
2018-07-03T08:25:04.006Z,29.63
2018-07-03T08:27:32.994Z,30.02
2018-07-03T08:30:01.947Z,29.65
2018-07-03T08:32:30.921Z,30.10
2018-07-03T08:35:00.820Z,30.01
2018-07-03T08:37:29.802Z,30.11
2018-07-03T08:39:58.826Z,30.58
2018-07-03T08:42:28.071Z,30.65
2018-07-03T08:44:57.324Z,29.88
2018-07-03T08:47:26.569Z,30.61
2018-07-03T08:49:55.826Z,30.47
2018-07-03T08:52:25.066Z,30.39
2018-07-03T08:54:54.642Z,30.30
2018-07-03T08:57:23.978Z,30.75
2018-07-03T08:59:53.264Z,31.15
2018-07-03T09:02:22.733Z,31.18
2018-07-03T09:04:52.061Z,31.53
2018-07-03T09:07:21.487Z,31.58
2018-07-03T09:09:50.762Z,30.94
2018-07-03T09:12:20.009Z,31.85
2018-07-03T09:14:49.274Z,32.07
2018-07-03T09:17:23.690Z,32.30
2018-07-03T09:19:52.972Z,32.53
2018-07-03T09:22:22.218Z,32.09
2018-07-03T09:24:51.458Z,32.30
2018-07-03T09:27:20.717Z,31.58
2018-07-03T09:29:50.115Z,31.81
2018-07-03T09:32:19.408Z,32.03
2018-07-03T09:34:48.659Z,32.97
2018-07-03T09:37:17.904Z,32.60
2018-07-03T09:39:47.208Z,33.00
2018-07-03T09:42:16.508Z,32.86
2018-07-03T09:44:45.905Z,32.94
2018-07-03T09:47:15.223Z,32.10
2018-07-03T09:49:44.597Z,31.86
2018-07-03T09:52:13.883Z,32.66
2018-07-03T09:54:43.138Z,33.08
2018-07-03T09:57:12.436Z,33.49
2018-07-03T09:59:41.738Z,33.81
2018-07-03T10:02:10.995Z,33.05
2018-07-03T10:04:40.336Z,33.84
2018-07-03T10:07:09.565Z,33.54
2018-07-03T10:09:38.944Z,32.84
2018-07-03T10:12:08.220Z,32.93
2018-07-03T10:14:37.625Z,33.80
2018-07-03T10:17:07.000Z,32.48
2018-07-03T10:19:36.326Z,32.84
2018-07-03T10:22:05.694Z,33.45
2018-07-03T10:24:34.926Z,32.61
2018-07-03T10:27:04.223Z,32.17
2018-07-03T10:29:33.626Z,31.98
2018-07-03T10:32:03.039Z,33.05
2018-07-03T10:34:32.320Z,33.50
2018-07-03T10:37:01.575Z,34.03
2018-07-03T10:39:30.934Z,34.18
2018-07-03T10:42:00.235Z,35.17
2018-07-03T10:44:29.675Z,35.59
2018-07-03T10:46:58.914Z,34.13
2018-07-03T10:49:28.265Z,33.58
2018-07-03T10:51:57.713Z,33.17
2018-07-03T10:54:26.938Z,33.18
2018-07-03T10:56:56.305Z,32.73
2018-07-03T10:59:25.554Z,32.67
2018-07-03T11:01:54.830Z,33.74
2018-07-03T11:04:24.162Z,33.93
2018-07-03T11:06:53.434Z,34.25
2018-07-03T11:09:22.792Z,34.97
2018-07-03T11:11:51.997Z,35.59
2018-07-03T11:14:21.239Z,35.98
2018-07-03T11:16:50.543Z,35.30
2018-07-03T11:19:19.916Z,36.15
2018-07-03T11:21:49.370Z,35.48
2018-07-03T11:24:18.891Z,35.58
2018-07-03T11:26:48.378Z,34.18
2018-07-03T11:29:17.629Z,33.79
2018-07-03T11:31:46.973Z,34.89
2018-07-03T11:34:16.922Z,34.81
2018-07-03T11:36:46.086Z,34.66
2018-07-03T11:39:15.436Z,34.87
2018-07-03T11:41:44.704Z,33.91
2018-07-03T11:44:13.947Z,33.66
2018-07-03T11:46:43.298Z,33.84
2018-07-03T11:49:12.701Z,33.05
2018-07-03T11:51:42.095Z,33.98
2018-07-03T11:54:11.476Z,33.42
2018-07-03T11:56:40.783Z,33.92
2018-07-03T11:59:10.067Z,34.51
2018-07-03T12:01:39.524Z,34.88
2018-07-03T12:04:08.954Z,35.43
2018-07-03T12:06:38.286Z,35.40
2018-07-03T12:09:09.974Z,35.26
2018-07-03T12:11:39.339Z,35.05
2018-07-03T12:14:09.694Z,35.45
2018-07-03T12:16:38.979Z,34.85
2018-07-03T12:19:08.410Z,35.65
2018-07-03T12:21:37.684Z,35.32
2018-07-03T12:24:07.067Z,35.32
2018-07-03T12:26:36.334Z,35.50
2018-07-03T12:29:06.057Z,35.55
2018-07-03T12:31:35.385Z,36.06
2018-07-03T12:34:04.811Z,35.18
2018-07-03T12:36:34.082Z,35.35
2018-07-03T12:39:03.875Z,35.41
2018-07-03T12:41:33.166Z,34.00
2018-07-03T12:44:02.467Z,33.83
2018-07-03T12:46:31.668Z,34.34
2018-07-03T12:49:01.006Z,34.24
2018-07-03T12:51:30.282Z,33.52
2018-07-03T12:53:59.626Z,33.72
2018-07-03T12:56:28.876Z,34.47
2018-07-03T12:58:58.146Z,33.79
2018-07-03T13:01:27.478Z,33.76
2018-07-03T13:03:56.810Z,33.13
2018-07-03T13:06:26.094Z,33.75
2018-07-03T13:08:55.426Z,34.16
2018-07-03T13:11:24.799Z,33.81
2018-07-03T13:13:54.124Z,33.75
2018-07-03T13:16:23.472Z,32.94
2018-07-03T13:18:52.818Z,33.76
2018-07-03T13:21:22.228Z,34.01
2018-07-03T13:23:51.532Z,34.92
2018-07-03T13:26:20.718Z,35.72
2018-07-03T13:28:49.637Z,36.13
2018-07-03T13:31:18.594Z,36.73
2018-07-03T13:33:48.033Z,36.86
2018-07-03T13:36:17.278Z,36.25
2018-07-03T13:38:46.506Z,36.29
2018-07-03T13:41:15.795Z,35.84
2018-07-03T13:43:45.117Z,36.41
2018-07-03T13:46:14.428Z,36.43
2018-07-03T13:48:43.780Z,36.96
2018-07-03T13:51:13.026Z,37.23
2018-07-03T13:53:42.486Z,37.16
2018-07-03T13:56:12.130Z,35.48
2018-07-03T13:58:41.298Z,34.26
2018-07-03T14:01:10.645Z,33.29
2018-07-03T14:03:39.906Z,34.06
2018-07-03T14:06:09.277Z,34.87
2018-07-03T14:08:38.576Z,35.70
2018-07-03T14:11:08.344Z,35.81
2018-07-03T14:13:37.502Z,36.02
2018-07-03T14:16:06.838Z,36.07
2018-07-03T14:18:36.206Z,36.50
2018-07-03T14:21:05.552Z,36.62
2018-07-03T14:23:34.810Z,36.30
2018-07-03T14:26:04.064Z,36.74
2018-07-03T14:28:33.325Z,36.42
2018-07-03T14:31:02.580Z,36.35
2018-07-03T14:33:31.927Z,36.72
2018-07-03T14:36:01.226Z,36.62
2018-07-03T14:38:30.579Z,36.06
2018-07-03T14:40:59.828Z,34.69
2018-07-03T14:43:29.072Z,35.09
2018-07-03T14:45:58.344Z,35.38
2018-07-03T14:48:27.662Z,34.78
2018-07-03T14:50:56.923Z,34.88
2018-07-03T14:53:26.182Z,35.16
2018-07-03T14:55:55.449Z,35.35
2018-07-03T14:58:25.356Z,33.82
2018-07-03T15:00:54.509Z,35.12
2018-07-03T15:03:23.879Z,35.07
2018-07-03T15:05:53.255Z,35.31
2018-07-03T15:08:22.571Z,34.97
2018-07-03T15:10:51.843Z,35.29
2018-07-03T15:13:21.234Z,34.15
2018-07-03T15:15:50.430Z,34.72
2018-07-03T15:18:19.771Z,34.19
2018-07-03T15:20:49.027Z,35.14
2018-07-03T15:23:18.266Z,34.99
2018-07-03T15:25:47.538Z,35.21
2018-07-03T15:28:16.747Z,34.11
2018-07-03T15:30:45.740Z,33.86
2018-07-03T15:33:14.764Z,33.83
2018-07-03T15:35:43.698Z,34.01
2018-07-03T15:38:12.662Z,34.53
2018-07-03T15:40:41.617Z,35.03
2018-07-03T15:43:11.046Z,35.17
2018-07-03T15:45:40.311Z,33.99
2018-07-03T15:48:09.775Z,34.33
2018-07-03T15:50:39.004Z,34.50
2018-07-03T15:53:08.316Z,34.12
2018-07-03T15:55:37.954Z,33.97
2018-07-03T15:58:07.554Z,33.86
2018-07-03T16:00:37.375Z,34.25
2018-07-03T16:03:17.527Z,34.99
2018-07-03T16:06:57.026Z,35.02
2018-07-03T16:09:26.434Z,35.24
2018-07-03T16:11:55.649Z,34.58
2018-07-03T16:14:24.985Z,35.01
2018-07-03T16:16:54.350Z,34.75
2018-07-03T16:20:28.594Z,35.40
2018-07-03T16:22:57.946Z,35.45
2018-07-03T16:25:27.295Z,34.72
2018-07-03T16:27:56.466Z,34.71
2018-07-03T16:30:25.685Z,35.33
2018-07-03T16:32:54.961Z,35.58
2018-07-03T16:35:24.212Z,35.31
2018-07-03T16:37:53.454Z,35.26
2018-07-03T16:40:22.802Z,34.95
2018-07-03T16:42:52.084Z,34.70
2018-07-03T16:45:21.535Z,34.54
2018-07-03T16:47:50.877Z,34.66
2018-07-03T16:50:20.228Z,34.32
2018-07-03T16:52:49.504Z,34.39
2018-07-03T16:55:18.824Z,34.84
2018-07-03T16:57:48.074Z,34.78
2018-07-03T17:00:22.810Z,34.47
2018-07-03T17:02:52.133Z,34.22
2018-07-03T17:05:21.746Z,33.42
2018-07-03T17:07:51.242Z,32.93
2018-07-03T17:10:20.546Z,32.96
2018-07-03T17:12:49.863Z,32.50
2018-07-03T17:15:19.094Z,32.49
2018-07-03T17:17:48.354Z,32.76
2018-07-03T17:20:17.706Z,33.00
2018-07-03T17:22:46.943Z,32.84
2018-07-03T17:25:16.304Z,32.65
2018-07-03T17:27:45.565Z,32.66
2018-07-03T17:30:14.794Z,32.37
2018-07-03T17:32:44.162Z,32.21
2018-07-03T17:35:13.408Z,32.39
2018-07-03T17:37:42.642Z,32.55
2018-07-03T17:40:23.211Z,32.79
2018-07-03T17:44:02.247Z,32.93
2018-07-03T17:46:31.545Z,33.33
2018-07-03T17:49:00.920Z,33.35
2018-07-03T17:51:30.245Z,33.53
2018-07-03T17:53:59.614Z,33.54
2018-07-03T17:56:28.924Z,33.21
2018-07-03T17:58:58.410Z,32.89
2018-07-03T18:01:27.609Z,32.74
2018-07-03T18:03:56.853Z,33.09
2018-07-03T18:06:26.146Z,33.32
2018-07-03T18:08:55.472Z,33.42
2018-07-03T18:11:24.826Z,33.63
2018-07-03T18:13:54.183Z,33.82
2018-07-03T18:16:23.439Z,33.95
2018-07-03T18:18:57.784Z,34.02
2018-07-03T18:21:27.264Z,33.98
2018-07-03T18:23:56.683Z,34.01
2018-07-03T18:26:25.965Z,34.05
2018-07-03T18:28:55.304Z,34.01
2018-07-03T18:31:24.543Z,34.01
2018-07-03T18:33:53.787Z,33.97
2018-07-03T18:36:23.190Z,33.94
2018-07-03T18:38:52.581Z,33.90
2018-07-03T18:41:21.904Z,33.85
2018-07-03T18:43:51.311Z,33.73
2018-07-03T18:46:20.585Z,33.64
2018-07-03T18:48:50.011Z,33.61
2018-07-03T18:51:19.353Z,33.51
2018-07-03T18:53:48.710Z,33.41
2018-07-03T18:56:17.990Z,33.32
2018-07-03T18:58:47.423Z,33.26
2018-07-03T19:01:16.775Z,33.15
2018-07-03T19:03:46.146Z,33.07
2018-07-03T19:06:15.366Z,32.97
2018-07-03T19:08:44.784Z,32.95
2018-07-03T19:11:14.089Z,32.82
2018-07-03T19:13:43.423Z,32.60
2018-07-03T19:16:12.667Z,32.40
2018-07-03T19:18:41.872Z,32.43
2018-07-03T19:21:11.108Z,32.28
2018-07-03T19:23:40.465Z,32.21
2018-07-03T19:26:09.886Z,32.18
2018-07-03T19:28:39.196Z,32.02
2018-07-03T19:31:08.515Z,31.85
2018-07-03T19:33:37.919Z,31.83
2018-07-03T19:36:07.327Z,31.72
2018-07-03T19:38:36.496Z,31.70
2018-07-03T19:41:05.630Z,31.60
2018-07-03T19:43:36.075Z,31.33
2018-07-03T19:46:05.927Z,31.17
2018-07-03T19:48:35.224Z,31.11
2018-07-03T19:51:04.501Z,31.13
2018-07-03T19:53:33.720Z,31.16
2018-07-03T19:56:02.978Z,31.12
2018-07-03T19:58:32.235Z,30.87
2018-07-03T20:01:01.456Z,30.64
2018-07-03T20:03:30.713Z,30.22
2018-07-03T20:06:00.057Z,30.27
2018-07-03T20:08:29.316Z,30.36
2018-07-03T20:10:58.567Z,30.41
2018-07-03T20:13:27.807Z,30.40
2018-07-03T20:15:57.064Z,30.32
2018-07-03T20:18:26.306Z,30.09
2018-07-03T20:20:55.558Z,30.11
2018-07-03T20:23:24.813Z,30.12
2018-07-03T20:25:54.150Z,30.11
2018-07-03T20:28:23.479Z,30.08
2018-07-03T20:30:52.759Z,30.03
2018-07-03T20:33:22.006Z,30.02
2018-07-03T20:35:51.267Z,30.01
2018-07-03T20:38:20.511Z,29.97
2018-07-03T20:40:54.555Z,29.92
2018-07-03T20:43:24.309Z,29.93
2018-07-03T20:45:53.686Z,29.88
2018-07-03T20:48:23.402Z,29.84
2018-07-03T20:50:52.655Z,29.73
2018-07-03T20:53:22.092Z,29.61
2018-07-03T20:55:51.413Z,29.53
2018-07-03T20:58:21.030Z,29.51
2018-07-03T21:00:50.204Z,29.42
2018-07-03T21:03:20.715Z,29.41
2018-07-03T21:05:50.315Z,29.28
2018-07-03T21:08:19.406Z,29.14
2018-07-03T21:10:48.644Z,29.06
2018-07-03T21:13:18.038Z,28.99
2018-07-03T21:15:47.519Z,28.72
2018-07-03T21:18:16.832Z,27.55
2018-07-03T21:20:45.897Z,26.96
2018-07-03T21:23:15.250Z,26.23
2018-07-03T21:25:44.502Z,25.66
2018-07-03T21:28:13.871Z,25.89
2018-07-03T21:30:43.125Z,26.45
2018-07-03T21:33:12.337Z,26.85
2018-07-03T21:35:41.735Z,27.12
2018-07-03T21:38:11.113Z,27.22
2018-07-03T21:40:40.314Z,27.12
2018-07-03T21:43:09.947Z,27.22
2018-07-03T21:45:39.210Z,27.37
2018-07-03T21:48:08.635Z,27.36
2018-07-03T21:50:38.033Z,27.30
2018-07-03T21:53:09.214Z,27.11
2018-07-03T21:55:38.708Z,26.84
2018-07-03T21:58:08.008Z,26.82
2018-07-03T22:00:40.599Z,26.78
2018-07-03T22:03:11.082Z,26.82
2018-07-03T22:05:40.954Z,26.94
2018-07-03T22:08:10.238Z,27.05
2018-07-03T22:10:39.586Z,27.11
2018-07-03T22:13:08.784Z,27.16
2018-07-03T22:15:38.029Z,27.23
2018-07-03T22:18:07.274Z,27.23
2018-07-03T22:20:36.534Z,27.29
2018-07-03T22:23:05.802Z,27.29
2018-07-03T22:25:35.038Z,27.28
2018-07-03T22:28:04.288Z,27.27
2018-07-03T22:30:33.545Z,27.26
2018-07-03T22:33:02.802Z,27.27
2018-07-03T22:35:32.138Z,27.22
2018-07-03T22:38:01.406Z,27.10
2018-07-03T22:40:30.626Z,27.03
2018-07-03T22:42:59.914Z,27.03
2018-07-03T22:45:29.430Z,26.99
2018-07-03T22:47:58.832Z,26.95
2018-07-03T22:50:28.121Z,26.87
2018-07-03T22:52:57.289Z,26.42
2018-07-03T22:55:26.631Z,26.29
2018-07-03T22:57:55.896Z,26.46
2018-07-03T23:00:25.268Z,25.97
2018-07-03T23:02:54.948Z,25.97
2018-07-03T23:05:24.659Z,25.92
2018-07-03T23:07:54.158Z,26.14
2018-07-03T23:10:23.469Z,26.28
2018-07-03T23:12:52.711Z,26.42
2018-07-03T23:15:22.103Z,26.45
2018-07-03T23:17:51.314Z,26.49
2018-07-03T23:20:20.673Z,26.29
2018-07-03T23:22:50.059Z,25.87
2018-07-03T23:25:19.318Z,26.10
2018-07-03T23:27:48.470Z,26.18
2018-07-03T23:30:17.724Z,26.01
2018-07-03T23:32:47.007Z,25.96
2018-07-03T23:35:16.223Z,25.95
2018-07-03T23:37:45.449Z,26.03
2018-07-03T23:40:14.603Z,26.10
2018-07-03T23:42:43.902Z,26.09
2018-07-03T23:45:13.156Z,26.07
2018-07-03T23:47:53.309Z,26.11
2018-07-03T23:50:33.370Z,26.17
2018-07-03T23:53:13.620Z,26.14
2018-07-03T23:55:53.878Z,26.13
2018-07-03T23:58:34.236Z,26.09
